sensor_id;sensor_type;location;lat;lon;timestamp;P1;durP1;ratioP1;P2;durP2;ratioP2
9322;SDS011;4700;48.822;9.270;2023-04-08T00:01:22;172.23;;;91.80;;
9322;SDS011;4700;48.822;9.270;2023-04-08T00:04:08;172.73;;;93.07;;
9322;SDS011;4700;48.822;9.270;2023-04-08T00:06:55;169.93;;;92.73;;
9322;SDS011;4700;48.822;9.270;2023-04-08T00:09:40;165.73;;;92.00;;
9322;SDS011;4700;48.822;9.270;2023-04-08T00:12:26;170.80;;;93.00;;
9322;SDS011;4700;48.822;9.270;2023-04-08T00:15:13;170.03;;;91.10;;
9322;SDS011;4700;48.822;9.270;2023-04-08T00:17:59;164.20;;;90.43;;
9322;SDS011;4700;48.822;9.270;2023-04-08T00:20:45;164.10;;;91.23;;
9322;SDS011;4700;48.822;9.270;2023-04-08T00:23:31;164.53;;;93.60;;
9322;SDS011;4700;48.822;9.270;2023-04-08T00:26:16;175.43;;;94.17;;
9322;SDS011;4700;48.822;9.270;2023-04-08T00:29:02;163.33;;;91.93;;
9322;SDS011;4700;48.822;9.270;2023-04-08T00:31:49;167.63;;;93.30;;
9322;SDS011;4700;48.822;9.270;2023-04-08T00:34:35;162.23;;;91.23;;
9322;SDS011;4700;48.822;9.270;2023-04-08T00:37:21;166.47;;;91.00;;
9322;SDS011;4700;48.822;9.270;2023-04-08T00:40:08;159.33;;;89.53;;
9322;SDS011;4700;48.822;9.270;2023-04-08T00:42:55;159.07;;;89.93;;
9322;SDS011;4700;48.822;9.270;2023-04-08T00:45:36;158.13;;;88.73;;
9322;SDS011;4700;48.822;9.270;2023-04-08T00:48:24;155.83;;;90.33;;
9322;SDS011;4700;48.822;9.270;2023-04-08T00:51:10;161.43;;;91.07;;
9322;SDS011;4700;48.822;9.270;2023-04-08T00:53:56;154.53;;;88.67;;
9322;SDS011;4700;48.822;9.270;2023-04-08T00:56:44;154.60;;;88.23;;
9322;SDS011;4700;48.822;9.270;2023-04-08T00:59:30;155.40;;;88.73;;
9322;SDS011;4700;48.822;9.270;2023-04-08T01:02:20;161.03;;;88.33;;
9322;SDS011;4700;48.822;9.270;2023-04-08T01:05:14;166.90;;;91.70;;
9322;SDS011;4700;48.822;9.270;2023-04-08T01:08:07;162.53;;;89.90;;
9322;SDS011;4700;48.822;9.270;2023-04-08T01:10:55;160.33;;;90.33;;
9322;SDS011;4700;48.822;9.270;2023-04-08T01:13:44;157.30;;;87.70;;
9322;SDS011;4700;48.822;9.270;2023-04-08T01:16:33;154.93;;;88.43;;
9322;SDS011;4700;48.822;9.270;2023-04-08T01:19:20;162.63;;;89.90;;
9322;SDS011;4700;48.822;9.270;2023-04-08T01:22:14;147.63;;;85.77;;
9322;SDS011;4700;48.822;9.270;2023-04-08T01:25:14;150.43;;;88.67;;
9322;SDS011;4700;48.822;9.270;2023-04-08T01:28:06;165.70;;;92.93;;
9322;SDS011;4700;48.822;9.270;2023-04-08T01:30:55;167.23;;;92.23;;
9322;SDS011;4700;48.822;9.270;2023-04-08T01:33:43;175.03;;;91.77;;
9322;SDS011;4700;48.822;9.270;2023-04-08T01:36:30;161.23;;;89.40;;
9322;SDS011;4700;48.822;9.270;2023-04-08T01:39:18;172.70;;;91.33;;
9322;SDS011;4700;48.822;9.270;2023-04-08T01:42:05;162.97;;;87.73;;
9322;SDS011;4700;48.822;9.270;2023-04-08T01:44:54;172.50;;;91.73;;
9322;SDS011;4700;48.822;9.270;2023-04-08T01:47:42;169.67;;;92.47;;
9322;SDS011;4700;48.822;9.270;2023-04-08T01:50:30;157.53;;;87.77;;
9322;SDS011;4700;48.822;9.270;2023-04-08T01:53:18;158.43;;;88.10;;
9322;SDS011;4700;48.822;9.270;2023-04-08T01:56:05;172.97;;;93.00;;
9322;SDS011;4700;48.822;9.270;2023-04-08T01:58:53;167.97;;;91.60;;
9322;SDS011;4700;48.822;9.270;2023-04-08T02:01:44;171.00;;;90.73;;
9322;SDS011;4700;48.822;9.270;2023-04-08T02:04:32;180.17;;;94.23;;
9322;SDS011;4700;48.822;9.270;2023-04-08T02:07:20;189.87;;;97.53;;
9322;SDS011;4700;48.822;9.270;2023-04-08T02:10:06;180.80;;;95.40;;
9322;SDS011;4700;48.822;9.270;2023-04-08T02:12:52;168.40;;;92.17;;
9322;SDS011;4700;48.822;9.270;2023-04-08T02:15:40;170.37;;;92.13;;
9322;SDS011;4700;48.822;9.270;2023-04-08T02:18:33;175.17;;;92.33;;
9322;SDS011;4700;48.822;9.270;2023-04-08T02:21:21;172.73;;;91.87;;
9322;SDS011;4700;48.822;9.270;2023-04-08T02:24:12;164.17;;;89.53;;
9322;SDS011;4700;48.822;9.270;2023-04-08T02:26:59;161.83;;;90.00;;
9322;SDS011;4700;48.822;9.270;2023-04-08T02:29:47;168.63;;;90.37;;
9322;SDS011;4700;48.822;9.270;2023-04-08T02:32:34;174.13;;;91.83;;
9322;SDS011;4700;48.822;9.270;2023-04-08T02:35:22;173.17;;;94.03;;
9322;SDS011;4700;48.822;9.270;2023-04-08T02:38:08;165.13;;;90.67;;
9322;SDS011;4700;48.822;9.270;2023-04-08T02:40:54;170.27;;;91.43;;
9322;SDS011;4700;48.822;9.270;2023-04-08T02:43:41;188.47;;;100.83;;
9322;SDS011;4700;48.822;9.270;2023-04-08T02:46:27;172.00;;;93.23;;
9322;SDS011;4700;48.822;9.270;2023-04-08T02:49:13;179.73;;;95.73;;
9322;SDS011;4700;48.822;9.270;2023-04-08T02:52:00;179.33;;;92.90;;
9322;SDS011;4700;48.822;9.270;2023-04-08T02:54:46;177.13;;;94.73;;
9322;SDS011;4700;48.822;9.270;2023-04-08T02:57:31;177.73;;;92.73;;
9322;SDS011;4700;48.822;9.270;2023-04-08T03:00:17;173.33;;;91.13;;
9322;SDS011;4700;48.822;9.270;2023-04-08T03:03:03;172.23;;;90.97;;
9322;SDS011;4700;48.822;9.270;2023-04-08T03:05:49;170.80;;;93.10;;
9322;SDS011;4700;48.822;9.270;2023-04-08T03:08:36;172.73;;;94.43;;
9322;SDS011;4700;48.822;9.270;2023-04-08T03:11:21;168.30;;;90.20;;
9322;SDS011;4700;48.822;9.270;2023-04-08T03:14:07;164.60;;;92.93;;
9322;SDS011;4700;48.822;9.270;2023-04-08T03:16:53;167.07;;;93.13;;
9322;SDS011;4700;48.822;9.270;2023-04-08T03:19:38;171.10;;;91.00;;
9322;SDS011;4700;48.822;9.270;2023-04-08T03:22:24;179.30;;;94.43;;
9322;SDS011;4700;48.822;9.270;2023-04-08T03:25:11;188.93;;;94.80;;
9322;SDS011;4700;48.822;9.270;2023-04-08T03:27:57;180.60;;;92.93;;
9322;SDS011;4700;48.822;9.270;2023-04-08T03:30:43;173.10;;;92.23;;
9322;SDS011;4700;48.822;9.270;2023-04-08T03:33:28;169.47;;;93.17;;
9322;SDS011;4700;48.822;9.270;2023-04-08T03:36:14;181.60;;;94.30;;
9322;SDS011;4700;48.822;9.270;2023-04-08T03:39:00;178.07;;;92.53;;
9322;SDS011;4700;48.822;9.270;2023-04-08T03:41:47;169.73;;;89.83;;
9322;SDS011;4700;48.822;9.270;2023-04-08T03:44:33;181.57;;;94.43;;
9322;SDS011;4700;48.822;9.270;2023-04-08T03:47:19;184.43;;;94.23;;
9322;SDS011;4700;48.822;9.270;2023-04-08T03:50:05;187.17;;;94.93;;
9322;SDS011;4700;48.822;9.270;2023-04-08T03:52:51;187.73;;;95.40;;
9322;SDS011;4700;48.822;9.270;2023-04-08T03:55:37;186.37;;;96.23;;
9322;SDS011;4700;48.822;9.270;2023-04-08T03:58:25;187.13;;;95.63;;
9322;SDS011;4700;48.822;9.270;2023-04-08T04:01:11;174.83;;;94.20;;
9322;SDS011;4700;48.822;9.270;2023-04-08T04:03:57;187.53;;;96.60;;
9322;SDS011;4700;48.822;9.270;2023-04-08T04:06:43;181.17;;;94.10;;
9322;SDS011;4700;48.822;9.270;2023-04-08T04:09:28;183.43;;;94.00;;
9322;SDS011;4700;48.822;9.270;2023-04-08T04:12:14;180.93;;;93.63;;
9322;SDS011;4700;48.822;9.270;2023-04-08T04:15:02;196.13;;;96.10;;
9322;SDS011;4700;48.822;9.270;2023-04-08T04:17:48;188.57;;;95.53;;
9322;SDS011;4700;48.822;9.270;2023-04-08T04:20:34;191.03;;;96.83;;
9322;SDS011;4700;48.822;9.270;2023-04-08T04:23:24;192.63;;;95.53;;
9322;SDS011;4700;48.822;9.270;2023-04-08T04:26:10;204.33;;;99.43;;
9322;SDS011;4700;48.822;9.270;2023-04-08T04:28:55;195.70;;;97.63;;
9322;SDS011;4700;48.822;9.270;2023-04-08T04:31:43;188.60;;;96.63;;
9322;SDS011;4700;48.822;9.270;2023-04-08T04:34:29;190.20;;;93.50;;
9322;SDS011;4700;48.822;9.270;2023-04-08T04:37:14;185.43;;;94.97;;
9322;SDS011;4700;48.822;9.270;2023-04-08T04:40:00;181.13;;;94.03;;
9322;SDS011;4700;48.822;9.270;2023-04-08T04:42:47;182.30;;;92.43;;
9322;SDS011;4700;48.822;9.270;2023-04-08T04:45:33;175.90;;;91.60;;
9322;SDS011;4700;48.822;9.270;2023-04-08T04:48:20;183.33;;;94.40;;
9322;SDS011;4700;48.822;9.270;2023-04-08T04:51:06;177.53;;;91.97;;
9322;SDS011;4700;48.822;9.270;2023-04-08T04:53:52;182.83;;;92.67;;
9322;SDS011;4700;48.822;9.270;2023-04-08T04:56:38;191.10;;;95.40;;
9322;SDS011;4700;48.822;9.270;2023-04-08T04:59:24;185.33;;;93.53;;
9322;SDS011;4700;48.822;9.270;2023-04-08T05:02:10;176.17;;;91.30;;
9322;SDS011;4700;48.822;9.270;2023-04-08T05:04:57;174.13;;;91.17;;
9322;SDS011;4700;48.822;9.270;2023-04-08T05:07:42;173.50;;;90.53;;
9322;SDS011;4700;48.822;9.270;2023-04-08T05:10:28;176.53;;;90.50;;
9322;SDS011;4700;48.822;9.270;2023-04-08T05:13:14;182.23;;;94.90;;
9322;SDS011;4700;48.822;9.270;2023-04-08T05:16:00;181.10;;;93.03;;
9322;SDS011;4700;48.822;9.270;2023-04-08T05:18:46;200.77;;;106.20;;
9322;SDS011;4700;48.822;9.270;2023-04-08T05:21:33;189.27;;;94.70;;
9322;SDS011;4700;48.822;9.270;2023-04-08T05:24:19;184.77;;;96.00;;
9322;SDS011;4700;48.822;9.270;2023-04-08T05:27:04;180.53;;;93.33;;
9322;SDS011;4700;48.822;9.270;2023-04-08T05:29:53;179.83;;;93.80;;
9322;SDS011;4700;48.822;9.270;2023-04-08T05:32:39;177.33;;;91.70;;
9322;SDS011;4700;48.822;9.270;2023-04-08T05:35:24;181.70;;;95.23;;
9322;SDS011;4700;48.822;9.270;2023-04-08T05:38:11;179.53;;;92.93;;
9322;SDS011;4700;48.822;9.270;2023-04-08T05:41:02;184.00;;;98.73;;
9322;SDS011;4700;48.822;9.270;2023-04-08T05:43:48;189.43;;;96.00;;
9322;SDS011;4700;48.822;9.270;2023-04-08T05:46:34;198.37;;;96.10;;
9322;SDS011;4700;48.822;9.270;2023-04-08T05:49:22;172.40;;;93.63;;
9322;SDS011;4700;48.822;9.270;2023-04-08T05:52:08;181.00;;;93.10;;
9322;SDS011;4700;48.822;9.270;2023-04-08T05:54:55;181.03;;;93.20;;
9322;SDS011;4700;48.822;9.270;2023-04-08T05:57:41;183.90;;;94.70;;
9322;SDS011;4700;48.822;9.270;2023-04-08T06:00:27;185.03;;;95.30;;
9322;SDS011;4700;48.822;9.270;2023-04-08T06:03:13;191.23;;;95.70;;
9322;SDS011;4700;48.822;9.270;2023-04-08T06:05:59;198.53;;;98.30;;
9322;SDS011;4700;48.822;9.270;2023-04-08T06:08:45;202.40;;;98.47;;
9322;SDS011;4700;48.822;9.270;2023-04-08T06:11:32;201.20;;;102.30;;
9322;SDS011;4700;48.822;9.270;2023-04-08T06:14:18;197.80;;;101.20;;
9322;SDS011;4700;48.822;9.270;2023-04-08T06:17:04;211.77;;;114.63;;
9322;SDS011;4700;48.822;9.270;2023-04-08T06:19:50;200.53;;;103.37;;
9322;SDS011;4700;48.822;9.270;2023-04-08T06:22:37;200.43;;;101.90;;
9322;SDS011;4700;48.822;9.270;2023-04-08T06:25:23;199.37;;;98.80;;
9322;SDS011;4700;48.822;9.270;2023-04-08T06:28:10;205.07;;;107.63;;
9322;SDS011;4700;48.822;9.270;2023-04-08T06:30:56;196.43;;;101.50;;
9322;SDS011;4700;48.822;9.270;2023-04-08T06:33:42;193.87;;;101.40;;
9322;SDS011;4700;48.822;9.270;2023-04-08T06:36:27;198.90;;;101.13;;
9322;SDS011;4700;48.822;9.270;2023-04-08T06:39:13;179.93;;;95.97;;
9322;SDS011;4700;48.822;9.270;2023-04-08T06:41:59;176.57;;;96.73;;
9322;SDS011;4700;48.822;9.270;2023-04-08T06:44:46;197.73;;;107.93;;
9322;SDS011;4700;48.822;9.270;2023-04-08T06:47:32;167.93;;;94.63;;
9322;SDS011;4700;48.822;9.270;2023-04-08T06:50:18;163.03;;;94.13;;
9322;SDS011;4700;48.822;9.270;2023-04-08T06:53:04;167.47;;;93.67;;
9322;SDS011;4700;48.822;9.270;2023-04-08T06:55:50;168.27;;;94.63;;
9322;SDS011;4700;48.822;9.270;2023-04-08T06:58:36;151.20;;;90.10;;
9322;SDS011;4700;48.822;9.270;2023-04-08T07:01:22;153.57;;;89.97;;
9322;SDS011;4700;48.822;9.270;2023-04-08T07:04:08;159.60;;;91.23;;
9322;SDS011;4700;48.822;9.270;2023-04-08T07:06:54;156.57;;;91.47;;
9322;SDS011;4700;48.822;9.270;2023-04-08T07:09:40;157.97;;;91.20;;
9322;SDS011;4700;48.822;9.270;2023-04-08T07:12:28;157.67;;;90.63;;
9322;SDS011;4700;48.822;9.270;2023-04-08T07:15:14;143.63;;;86.67;;
9322;SDS011;4700;48.822;9.270;2023-04-08T07:18:00;166.37;;;91.50;;
9322;SDS011;4700;48.822;9.270;2023-04-08T07:20:49;157.90;;;89.33;;
9322;SDS011;4700;48.822;9.270;2023-04-08T07:23:35;158.73;;;89.90;;
9322;SDS011;4700;48.822;9.270;2023-04-08T07:26:21;154.37;;;89.70;;
9322;SDS011;4700;48.822;9.270;2023-04-08T07:29:06;157.03;;;90.27;;
9322;SDS011;4700;48.822;9.270;2023-04-08T07:31:52;156.47;;;89.07;;
9322;SDS011;4700;48.822;9.270;2023-04-08T07:34:39;159.13;;;93.13;;
9322;SDS011;4700;48.822;9.270;2023-04-08T07:37:25;146.47;;;91.03;;
9322;SDS011;4700;48.822;9.270;2023-04-08T07:40:11;154.43;;;92.37;;
9322;SDS011;4700;48.822;9.270;2023-04-08T07:42:56;157.37;;;91.10;;
9322;SDS011;4700;48.822;9.270;2023-04-08T07:45:42;153.70;;;92.73;;
9322;SDS011;4700;48.822;9.270;2023-04-08T07:48:28;140.53;;;89.93;;
9322;SDS011;4700;48.822;9.270;2023-04-08T07:51:15;151.10;;;92.67;;
9322;SDS011;4700;48.822;9.270;2023-04-08T07:54:01;148.23;;;94.10;;
9322;SDS011;4700;48.822;9.270;2023-04-08T07:56:46;148.60;;;94.90;;
9322;SDS011;4700;48.822;9.270;2023-04-08T07:59:32;165.10;;;98.73;;
9322;SDS011;4700;48.822;9.270;2023-04-08T08:02:17;149.30;;;99.43;;
9322;SDS011;4700;48.822;9.270;2023-04-08T08:05:03;160.33;;;100.70;;
9322;SDS011;4700;48.822;9.270;2023-04-08T08:07:52;155.37;;;97.80;;
9322;SDS011;4700;48.822;9.270;2023-04-08T08:10:37;157.17;;;93.50;;
9322;SDS011;4700;48.822;9.270;2023-04-08T08:13:23;154.57;;;94.33;;
9322;SDS011;4700;48.822;9.270;2023-04-08T08:16:09;149.57;;;95.23;;
9322;SDS011;4700;48.822;9.270;2023-04-08T08:18:55;145.33;;;95.90;;
9322;SDS011;4700;48.822;9.270;2023-04-08T08:21:43;148.00;;;97.40;;
9322;SDS011;4700;48.822;9.270;2023-04-08T08:24:30;155.23;;;97.47;;
9322;SDS011;4700;48.822;9.270;2023-04-08T08:27:16;151.30;;;95.40;;
9322;SDS011;4700;48.822;9.270;2023-04-08T08:30:02;147.80;;;96.77;;
9322;SDS011;4700;48.822;9.270;2023-04-08T08:32:48;145.80;;;94.27;;
9322;SDS011;4700;48.822;9.270;2023-04-08T08:35:34;139.50;;;100.97;;
9322;SDS011;4700;48.822;9.270;2023-04-08T08:38:20;148.93;;;112.50;;
9322;SDS011;4700;48.822;9.270;2023-04-08T08:41:07;136.90;;;107.40;;
9322;SDS011;4700;48.822;9.270;2023-04-08T08:43:53;135.73;;;106.07;;
9322;SDS011;4700;48.822;9.270;2023-04-08T08:46:40;138.73;;;109.67;;
9322;SDS011;4700;48.822;9.270;2023-04-08T08:49:29;127.37;;;106.07;;
9322;SDS011;4700;48.822;9.270;2023-04-08T08:52:16;135.67;;;110.67;;
9322;SDS011;4700;48.822;9.270;2023-04-08T08:55:02;117.30;;;103.07;;
9322;SDS011;4700;48.822;9.270;2023-04-08T08:57:50;132.80;;;116.93;;
9322;SDS011;4700;48.822;9.270;2023-04-08T09:00:36;121.50;;;108.40;;
9322;SDS011;4700;48.822;9.270;2023-04-08T09:03:25;112.93;;;101.60;;
9322;SDS011;4700;48.822;9.270;2023-04-08T09:06:14;119.73;;;107.77;;
9322;SDS011;4700;48.822;9.270;2023-04-08T09:09:04;112.80;;;101.70;;
9322;SDS011;4700;48.822;9.270;2023-04-08T09:11:54;117.73;;;106.20;;
9322;SDS011;4700;48.822;9.270;2023-04-08T09:14:49;114.17;;;103.87;;
9322;SDS011;4700;48.822;9.270;2023-04-08T09:17:35;121.57;;;110.57;;
9322;SDS011;4700;48.822;9.270;2023-04-08T09:20:22;120.10;;;109.53;;
9322;SDS011;4700;48.822;9.270;2023-04-08T09:23:08;108.40;;;99.00;;
9322;SDS011;4700;48.822;9.270;2023-04-08T09:25:54;112.13;;;101.43;;
9322;SDS011;4700;48.822;9.270;2023-04-08T09:28:57;102.67;;;93.67;;
9322;SDS011;4700;48.822;9.270;2023-04-08T09:31:45;106.07;;;97.27;;
9322;SDS011;4700;48.822;9.270;2023-04-08T09:34:37;95.93;;;87.87;;
9322;SDS011;4700;48.822;9.270;2023-04-08T09:37:23;107.97;;;98.87;;
9322;SDS011;4700;48.822;9.270;2023-04-08T09:40:08;109.03;;;100.03;;
9322;SDS011;4700;48.822;9.270;2023-04-08T09:42:54;88.53;;;81.90;;
9322;SDS011;4700;48.822;9.270;2023-04-08T09:45:43;88.07;;;81.03;;
9322;SDS011;4700;48.822;9.270;2023-04-08T09:48:32;117.37;;;107.23;;
9322;SDS011;4700;48.822;9.270;2023-04-08T09:51:22;105.07;;;96.57;;
9322;SDS011;4700;48.822;9.270;2023-04-08T09:54:11;92.37;;;85.57;;
9322;SDS011;4700;48.822;9.270;2023-04-08T09:57:00;95.17;;;88.07;;
9322;SDS011;4700;48.822;9.270;2023-04-08T09:59:51;67.57;;;63.00;;
9322;SDS011;4700;48.822;9.270;2023-04-08T10:02:46;81.87;;;76.33;;
9322;SDS011;4700;48.822;9.270;2023-04-08T10:05:40;84.37;;;77.97;;
9322;SDS011;4700;48.822;9.270;2023-04-08T10:08:27;72.40;;;67.70;;
9322;SDS011;4700;48.822;9.270;2023-04-08T10:11:15;55.23;;;52.03;;
9322;SDS011;4700;48.822;9.270;2023-04-08T10:14:01;70.33;;;65.77;;
9322;SDS011;4700;48.822;9.270;2023-04-08T10:16:47;76.90;;;72.40;;
9322;SDS011;4700;48.822;9.270;2023-04-08T10:19:36;64.97;;;60.93;;
9322;SDS011;4700;48.822;9.270;2023-04-08T10:25:33;125.93;;;114.77;;
9322;SDS011;4700;48.822;9.270;2023-04-08T10:28:22;102.90;;;94.07;;
9322;SDS011;4700;48.822;9.270;2023-04-08T10:31:09;107.37;;;97.63;;
9322;SDS011;4700;48.822;9.270;2023-04-08T10:34:14;109.33;;;99.67;;
9322;SDS011;4700;48.822;9.270;2023-04-08T10:37:00;98.20;;;88.83;;
9322;SDS011;4700;48.822;9.270;2023-04-08T10:39:49;108.23;;;97.73;;
9322;SDS011;4700;48.822;9.270;2023-04-08T10:42:38;103.83;;;93.60;;
9322;SDS011;4700;48.822;9.270;2023-04-08T10:45:24;116.60;;;104.50;;
9322;SDS011;4700;48.822;9.270;2023-04-08T10:48:10;114.43;;;103.03;;
9322;SDS011;4700;48.822;9.270;2023-04-08T10:51:00;116.83;;;104.50;;
9322;SDS011;4700;48.822;9.270;2023-04-08T10:53:47;115.43;;;102.87;;
9322;SDS011;4700;48.822;9.270;2023-04-08T10:56:35;97.63;;;87.27;;
9322;SDS011;4700;48.822;9.270;2023-04-08T10:59:28;106.53;;;95.23;;
9322;SDS011;4700;48.822;9.270;2023-04-08T11:02:15;106.23;;;94.23;;
9322;SDS011;4700;48.822;9.270;2023-04-08T11:05:01;104.93;;;92.90;;
9322;SDS011;4700;48.822;9.270;2023-04-08T11:07:47;114.70;;;102.23;;
9322;SDS011;4700;48.822;9.270;2023-04-08T11:10:35;112.10;;;100.30;;
9322;SDS011;4700;48.822;9.270;2023-04-08T11:13:23;118.37;;;105.87;;
9322;SDS011;4700;48.822;9.270;2023-04-08T11:16:10;116.30;;;104.23;;
9322;SDS011;4700;48.822;9.270;2023-04-08T11:18:57;122.73;;;109.83;;
9322;SDS011;4700;48.822;9.270;2023-04-08T11:21:45;121.27;;;108.53;;
9322;SDS011;4700;48.822;9.270;2023-04-08T11:24:32;123.87;;;111.47;;
9322;SDS011;4700;48.822;9.270;2023-04-08T11:27:21;113.60;;;102.13;;
9322;SDS011;4700;48.822;9.270;2023-04-08T11:30:10;120.37;;;107.97;;
9322;SDS011;4700;48.822;9.270;2023-04-08T11:32:55;123.87;;;109.37;;
9322;SDS011;4700;48.822;9.270;2023-04-08T11:35:42;120.30;;;107.70;;
9322;SDS011;4700;48.822;9.270;2023-04-08T11:38:28;109.93;;;98.43;;
9322;SDS011;4700;48.822;9.270;2023-04-08T11:41:14;113.77;;;102.00;;
9322;SDS011;4700;48.822;9.270;2023-04-08T11:44:00;112.27;;;100.20;;
9322;SDS011;4700;48.822;9.270;2023-04-08T11:46:54;120.60;;;107.40;;
9322;SDS011;4700;48.822;9.270;2023-04-08T11:49:43;118.13;;;105.53;;
9322;SDS011;4700;48.822;9.270;2023-04-08T11:52:42;130.80;;;115.37;;
9322;SDS011;4700;48.822;9.270;2023-04-08T11:55:29;128.93;;;107.20;;
9322;SDS011;4700;48.822;9.270;2023-04-08T11:58:17;120.00;;;105.23;;
9322;SDS011;4700;48.822;9.270;2023-04-08T12:01:02;126.17;;;108.17;;
9322;SDS011;4700;48.822;9.270;2023-04-08T12:03:59;114.47;;;99.67;;
9322;SDS011;4700;48.822;9.270;2023-04-08T12:06:45;124.37;;;103.47;;
9322;SDS011;4700;48.822;9.270;2023-04-08T12:09:31;119.73;;;102.83;;
9322;SDS011;4700;48.822;9.270;2023-04-08T12:12:17;125.03;;;106.67;;
9322;SDS011;4700;48.822;9.270;2023-04-08T12:15:03;114.80;;;98.30;;
9322;SDS011;4700;48.822;9.270;2023-04-08T12:17:49;124.00;;;104.73;;
9322;SDS011;4700;48.822;9.270;2023-04-08T12:20:36;121.33;;;101.90;;
9322;SDS011;4700;48.822;9.270;2023-04-08T12:23:21;123.77;;;105.70;;
9322;SDS011;4700;48.822;9.270;2023-04-08T12:26:07;115.07;;;101.43;;
9322;SDS011;4700;48.822;9.270;2023-04-08T12:28:53;113.27;;;100.30;;
9322;SDS011;4700;48.822;9.270;2023-04-08T12:31:38;114.63;;;102.23;;
9322;SDS011;4700;48.822;9.270;2023-04-08T12:34:24;126.13;;;110.57;;
9322;SDS011;4700;48.822;9.270;2023-04-08T12:37:11;120.43;;;105.67;;
9322;SDS011;4700;48.822;9.270;2023-04-08T12:39:57;125.93;;;111.50;;
9322;SDS011;4700;48.822;9.270;2023-04-08T12:42:42;129.60;;;113.13;;
9322;SDS011;4700;48.822;9.270;2023-04-08T12:45:29;128.70;;;112.63;;
9322;SDS011;4700;48.822;9.270;2023-04-08T12:48:01;120.83;;;108.40;;
9322;SDS011;4700;48.822;9.270;2023-04-08T12:50:47;119.00;;;106.37;;
9322;SDS011;4700;48.822;9.270;2023-04-08T12:53:34;115.43;;;103.47;;
9322;SDS011;4700;48.822;9.270;2023-04-08T12:56:20;118.33;;;106.53;;
9322;SDS011;4700;48.822;9.270;2023-04-08T12:59:06;112.87;;;101.70;;
9322;SDS011;4700;48.822;9.270;2023-04-08T13:01:52;126.43;;;113.27;;
9322;SDS011;4700;48.822;9.270;2023-04-08T13:04:37;110.97;;;100.30;;
9322;SDS011;4700;48.822;9.270;2023-04-08T13:07:23;111.67;;;100.53;;
9322;SDS011;4700;48.822;9.270;2023-04-08T13:10:10;121.70;;;110.00;;
9322;SDS011;4700;48.822;9.270;2023-04-08T13:12:56;105.50;;;95.10;;
9322;SDS011;4700;48.822;9.270;2023-04-08T13:15:41;108.10;;;97.27;;
9322;SDS011;4700;48.822;9.270;2023-04-08T13:18:27;114.87;;;103.90;;
9322;SDS011;4700;48.822;9.270;2023-04-08T13:21:13;103.97;;;93.53;;
9322;SDS011;4700;48.822;9.270;2023-04-08T13:23:59;110.63;;;99.53;;
9322;SDS011;4700;48.822;9.270;2023-04-08T13:26:46;104.37;;;93.77;;
9322;SDS011;4700;48.822;9.270;2023-04-08T13:29:32;107.80;;;96.93;;
9322;SDS011;4700;48.822;9.270;2023-04-08T13:32:18;107.30;;;96.67;;
9322;SDS011;4700;48.822;9.270;2023-04-08T13:35:04;107.53;;;96.70;;
9322;SDS011;4700;48.822;9.270;2023-04-08T13:37:50;108.27;;;96.93;;
9322;SDS011;4700;48.822;9.270;2023-04-08T13:40:36;111.27;;;99.93;;
9322;SDS011;4700;48.822;9.270;2023-04-08T13:43:27;113.00;;;100.70;;
9322;SDS011;4700;48.822;9.270;2023-04-08T13:49:13;116.03;;;101.80;;
9322;SDS011;4700;48.822;9.270;2023-04-08T13:51:59;119.97;;;105.57;;
9322;SDS011;4700;48.822;9.270;2023-04-08T13:54:45;113.57;;;101.43;;
9322;SDS011;4700;48.822;9.270;2023-04-08T13:57:31;115.77;;;103.73;;
9322;SDS011;4700;48.822;9.270;2023-04-08T14:00:17;120.77;;;107.60;;
9322;SDS011;4700;48.822;9.270;2023-04-08T14:03:03;115.70;;;103.33;;
9322;SDS011;4700;48.822;9.270;2023-04-08T14:05:49;113.30;;;101.60;;
9322;SDS011;4700;48.822;9.270;2023-04-08T14:08:35;123.00;;;109.60;;
9322;SDS011;4700;48.822;9.270;2023-04-08T14:11:20;131.37;;;113.33;;
9322;SDS011;4700;48.822;9.270;2023-04-08T14:14:06;128.83;;;113.80;;
9322;SDS011;4700;48.822;9.270;2023-04-08T14:16:52;117.77;;;104.83;;
9322;SDS011;4700;48.822;9.270;2023-04-08T14:19:38;126.63;;;112.93;;
9322;SDS011;4700;48.822;9.270;2023-04-08T14:22:24;112.90;;;100.63;;
9322;SDS011;4700;48.822;9.270;2023-04-08T14:25:10;127.03;;;110.40;;
9322;SDS011;4700;48.822;9.270;2023-04-08T14:27:55;116.10;;;102.77;;
9322;SDS011;4700;48.822;9.270;2023-04-08T14:30:41;122.10;;;106.73;;
9322;SDS011;4700;48.822;9.270;2023-04-08T14:33:28;119.77;;;104.13;;
9322;SDS011;4700;48.822;9.270;2023-04-08T14:36:14;120.13;;;106.30;;
9322;SDS011;4700;48.822;9.270;2023-04-08T14:39:01;115.30;;;101.70;;
9322;SDS011;4700;48.822;9.270;2023-04-08T14:41:47;116.77;;;101.37;;
9322;SDS011;4700;48.822;9.270;2023-04-08T14:44:35;120.27;;;105.20;;
9322;SDS011;4700;48.822;9.270;2023-04-08T14:47:21;136.17;;;114.33;;
9322;SDS011;4700;48.822;9.270;2023-04-08T14:50:09;124.53;;;106.87;;
9322;SDS011;4700;48.822;9.270;2023-04-08T14:52:54;123.07;;;108.70;;
9322;SDS011;4700;48.822;9.270;2023-04-08T14:55:40;116.53;;;103.03;;
9322;SDS011;4700;48.822;9.270;2023-04-08T14:58:26;116.13;;;103.53;;
9322;SDS011;4700;48.822;9.270;2023-04-08T15:01:11;122.97;;;108.87;;
9322;SDS011;4700;48.822;9.270;2023-04-08T15:03:57;129.87;;;114.93;;
9322;SDS011;4700;48.822;9.270;2023-04-08T15:06:44;109.37;;;97.60;;
9322;SDS011;4700;48.822;9.270;2023-04-08T15:09:30;119.03;;;106.43;;
9322;SDS011;4700;48.822;9.270;2023-04-08T15:12:16;102.80;;;91.87;;
9322;SDS011;4700;48.822;9.270;2023-04-08T15:15:02;106.40;;;95.10;;
9322;SDS011;4700;48.822;9.270;2023-04-08T15:17:48;105.33;;;93.80;;
9322;SDS011;4700;48.822;9.270;2023-04-08T15:20:34;109.50;;;96.30;;
9322;SDS011;4700;48.822;9.270;2023-04-08T15:23:21;112.63;;;96.53;;
9322;SDS011;4700;48.822;9.270;2023-04-08T15:26:07;113.63;;;95.87;;
9322;SDS011;4700;48.822;9.270;2023-04-08T15:28:53;113.47;;;99.93;;
9322;SDS011;4700;48.822;9.270;2023-04-08T15:31:41;112.87;;;99.00;;
9322;SDS011;4700;48.822;9.270;2023-04-08T15:34:27;107.17;;;94.53;;
9322;SDS011;4700;48.822;9.270;2023-04-08T15:37:13;101.43;;;89.10;;
9322;SDS011;4700;48.822;9.270;2023-04-08T15:40:00;106.27;;;93.83;;
9322;SDS011;4700;48.822;9.270;2023-04-08T15:42:46;109.93;;;93.03;;
9322;SDS011;4700;48.822;9.270;2023-04-08T15:45:32;111.37;;;92.70;;
9322;SDS011;4700;48.822;9.270;2023-04-08T15:48:18;119.10;;;96.40;;
9322;SDS011;4700;48.822;9.270;2023-04-08T15:51:07;115.53;;;94.30;;
9322;SDS011;4700;48.822;9.270;2023-04-08T15:53:55;124.17;;;96.33;;
9322;SDS011;4700;48.822;9.270;2023-04-08T15:56:42;124.53;;;98.50;;
9322;SDS011;4700;48.822;9.270;2023-04-08T15:59:29;114.27;;;92.47;;
9322;SDS011;4700;48.822;9.270;2023-04-08T16:02:15;120.13;;;94.53;;
9322;SDS011;4700;48.822;9.270;2023-04-08T16:05:01;128.60;;;100.97;;
9322;SDS011;4700;48.822;9.270;2023-04-08T16:07:47;116.57;;;94.50;;
9322;SDS011;4700;48.822;9.270;2023-04-08T16:10:33;117.20;;;95.10;;
9322;SDS011;4700;48.822;9.270;2023-04-08T16:13:19;129.70;;;102.83;;
9322;SDS011;4700;48.822;9.270;2023-04-08T16:16:05;121.20;;;94.00;;
9322;SDS011;4700;48.822;9.270;2023-04-08T16:18:52;119.00;;;96.57;;
9322;SDS011;4700;48.822;9.270;2023-04-08T16:21:39;126.93;;;103.23;;
9322;SDS011;4700;48.822;9.270;2023-04-08T16:24:24;115.43;;;93.90;;
9322;SDS011;4700;48.822;9.270;2023-04-08T16:27:10;115.00;;;92.20;;
9322;SDS011;4700;48.822;9.270;2023-04-08T16:30:01;124.67;;;98.17;;
9322;SDS011;4700;48.822;9.270;2023-04-08T16:32:46;112.60;;;90.83;;